Nova Boa Vista, Brazil
Current Conditions -  °F | °C
As of 6:00 PM on Tuesday 21 Oct 2014 (Local Time) from SBPF Reporting Station
Clear Clear  
Wind Chill: 73°   Ceiling: Unl
Heat Index: 73°   Visibility: 6mi
Dew Point: 57°   Wind: 9mph
Humidity: 57%   Direction: 150°SSE
Pressure: 30.12"   Gusts: NA
Location:  27.99°S, 52.98°W
Report Text: SBPF 212000Z 15008KT CAVOK 23/14 Q1020
Loading
Personal Weather Stations






























Interactive Weather Map
Tropical Storm Tracking
New forecast layout! Learn more

10-Day Weather Forecast

Advertisements
Track Severe Weather on mobile